sensor_id;sensor_type;location;lat;lon;timestamp;P1;durP1;ratioP1;P2;durP2;ratioP2
57309;SDS011;43153;50.984;18.204;2022-07-26T00:00:35;9.40;;;1.60;;
57309;SDS011;43153;50.984;18.204;2022-07-26T00:03:20;5.00;;;1.30;;
57309;SDS011;43153;50.984;18.204;2022-07-26T00:06:04;6.90;;;2.00;;
57309;SDS011;43153;50.984;18.204;2022-07-26T00:08:48;4.70;;;1.70;;
57309;SDS011;43153;50.984;18.204;2022-07-26T00:11:32;3.60;;;1.10;;
57309;SDS011;43153;50.984;18.204;2022-07-26T00:14:17;7.90;;;1.50;;
57309;SDS011;43153;50.984;18.204;2022-07-26T00:17:03;6.20;;;1.50;;
57309;SDS011;43153;50.984;18.204;2022-07-26T00:19:49;5.10;;;1.70;;
57309;SDS011;43153;50.984;18.204;2022-07-26T00:22:36;9.60;;;1.30;;
57309;SDS011;43153;50.984;18.204;2022-07-26T00:25:22;5.20;;;1.60;;
57309;SDS011;43153;50.984;18.204;2022-07-26T00:28:06;4.50;;;1.50;;
57309;SDS011;43153;50.984;18.204;2022-07-26T00:30:51;4.10;;;1.60;;
57309;SDS011;43153;50.984;18.204;2022-07-26T00:33:35;5.60;;;1.70;;
57309;SDS011;43153;50.984;18.204;2022-07-26T00:36:20;4.90;;;1.60;;
57309;SDS011;43153;50.984;18.204;2022-07-26T00:39:05;5.80;;;1.90;;
57309;SDS011;43153;50.984;18.204;2022-07-26T00:41:49;5.50;;;1.60;;
57309;SDS011;43153;50.984;18.204;2022-07-26T00:44:37;5.50;;;1.30;;
57309;SDS011;43153;50.984;18.204;2022-07-26T00:47:22;4.00;;;1.60;;
57309;SDS011;43153;50.984;18.204;2022-07-26T00:50:08;4.50;;;1.50;;
57309;SDS011;43153;50.984;18.204;2022-07-26T00:52:53;4.50;;;1.50;;
57309;SDS011;43153;50.984;18.204;2022-07-26T00:55:38;4.60;;;1.40;;
57309;SDS011;43153;50.984;18.204;2022-07-26T00:58:22;6.10;;;1.30;;
57309;SDS011;43153;50.984;18.204;2022-07-26T01:01:07;3.50;;;1.50;;
57309;SDS011;43153;50.984;18.204;2022-07-26T01:03:52;6.40;;;1.70;;
57309;SDS011;43153;50.984;18.204;2022-07-26T01:06:36;6.50;;;1.40;;
57309;SDS011;43153;50.984;18.204;2022-07-26T01:09:21;8.90;;;2.10;;
57309;SDS011;43153;50.984;18.204;2022-07-26T01:12:07;4.10;;;1.50;;
57309;SDS011;43153;50.984;18.204;2022-07-26T01:14:52;4.90;;;1.60;;
57309;SDS011;43153;50.984;18.204;2022-07-26T01:17:36;6.30;;;1.50;;
57309;SDS011;43153;50.984;18.204;2022-07-26T01:20:21;6.90;;;1.90;;
57309;SDS011;43153;50.984;18.204;2022-07-26T01:23:06;5.90;;;1.80;;
57309;SDS011;43153;50.984;18.204;2022-07-26T01:25:51;6.10;;;1.60;;
57309;SDS011;43153;50.984;18.204;2022-07-26T01:28:35;8.60;;;2.20;;
57309;SDS011;43153;50.984;18.204;2022-07-26T01:31:21;6.60;;;1.90;;
57309;SDS011;43153;50.984;18.204;2022-07-26T01:34:06;7.70;;;1.90;;
57309;SDS011;43153;50.984;18.204;2022-07-26T01:36:50;4.90;;;1.80;;
57309;SDS011;43153;50.984;18.204;2022-07-26T01:39:38;5.90;;;2.30;;
57309;SDS011;43153;50.984;18.204;2022-07-26T01:42:23;6.20;;;2.00;;
57309;SDS011;43153;50.984;18.204;2022-07-26T01:45:08;9.30;;;2.90;;
57309;SDS011;43153;50.984;18.204;2022-07-26T01:47:53;5.90;;;1.70;;
57309;SDS011;43153;50.984;18.204;2022-07-26T01:50:37;9.10;;;2.20;;
57309;SDS011;43153;50.984;18.204;2022-07-26T01:53:22;7.60;;;2.20;;
57309;SDS011;43153;50.984;18.204;2022-07-26T01:56:06;5.30;;;2.00;;
57309;SDS011;43153;50.984;18.204;2022-07-26T01:58:51;8.60;;;2.30;;
57309;SDS011;43153;50.984;18.204;2022-07-26T02:01:35;5.90;;;1.90;;
57309;SDS011;43153;50.984;18.204;2022-07-26T02:04:19;7.00;;;2.60;;
57309;SDS011;43153;50.984;18.204;2022-07-26T02:07:23;6.50;;;2.50;;
57309;SDS011;43153;50.984;18.204;2022-07-26T02:10:08;9.30;;;2.90;;
57309;SDS011;43153;50.984;18.204;2022-07-26T02:12:52;7.90;;;3.40;;
57309;SDS011;43153;50.984;18.204;2022-07-26T02:15:36;11.50;;;4.90;;
57309;SDS011;43153;50.984;18.204;2022-07-26T02:18:20;11.10;;;5.10;;
57309;SDS011;43153;50.984;18.204;2022-07-26T02:21:05;13.20;;;4.90;;
57309;SDS011;43153;50.984;18.204;2022-07-26T02:23:50;11.90;;;4.50;;
57309;SDS011;43153;50.984;18.204;2022-07-26T02:26:34;9.90;;;4.10;;
57309;SDS011;43153;50.984;18.204;2022-07-26T02:29:18;8.50;;;3.10;;
57309;SDS011;43153;50.984;18.204;2022-07-26T02:32:03;7.70;;;3.30;;
57309;SDS011;43153;50.984;18.204;2022-07-26T02:34:47;7.30;;;2.80;;
57309;SDS011;43153;50.984;18.204;2022-07-26T02:37:32;7.40;;;2.90;;
57309;SDS011;43153;50.984;18.204;2022-07-26T02:40:16;11.40;;;3.70;;
57309;SDS011;43153;50.984;18.204;2022-07-26T02:43:00;6.50;;;2.60;;
57309;SDS011;43153;50.984;18.204;2022-07-26T02:45:46;7.80;;;3.10;;
57309;SDS011;43153;50.984;18.204;2022-07-26T02:48:30;7.70;;;2.90;;
57309;SDS011;43153;50.984;18.204;2022-07-26T02:51:14;6.50;;;2.40;;
57309;SDS011;43153;50.984;18.204;2022-07-26T02:53:58;6.70;;;3.20;;
57309;SDS011;43153;50.984;18.204;2022-07-26T02:56:43;11.70;;;3.30;;
57309;SDS011;43153;50.984;18.204;2022-07-26T02:59:27;6.60;;;2.60;;
57309;SDS011;43153;50.984;18.204;2022-07-26T03:02:11;6.30;;;2.70;;
57309;SDS011;43153;50.984;18.204;2022-07-26T03:04:55;9.10;;;3.40;;
57309;SDS011;43153;50.984;18.204;2022-07-26T03:07:39;11.40;;;3.50;;
57309;SDS011;43153;50.984;18.204;2022-07-26T03:10:24;8.10;;;3.50;;
57309;SDS011;43153;50.984;18.204;2022-07-26T03:13:08;8.20;;;3.40;;
57309;SDS011;43153;50.984;18.204;2022-07-26T03:15:53;7.00;;;3.00;;
57309;SDS011;43153;50.984;18.204;2022-07-26T03:18:37;7.40;;;2.60;;
57309;SDS011;43153;50.984;18.204;2022-07-26T03:21:22;9.00;;;3.30;;
57309;SDS011;43153;50.984;18.204;2022-07-26T03:24:06;6.80;;;2.80;;
57309;SDS011;43153;50.984;18.204;2022-07-26T03:26:50;7.30;;;2.80;;
57309;SDS011;43153;50.984;18.204;2022-07-26T03:29:34;9.70;;;2.80;;
57309;SDS011;43153;50.984;18.204;2022-07-26T03:32:18;10.40;;;3.10;;
57309;SDS011;43153;50.984;18.204;2022-07-26T03:35:03;8.30;;;3.20;;
57309;SDS011;43153;50.984;18.204;2022-07-26T03:37:47;8.20;;;2.70;;
57309;SDS011;43153;50.984;18.204;2022-07-26T03:40:32;9.30;;;3.00;;
57309;SDS011;43153;50.984;18.204;2022-07-26T03:43:16;9.00;;;3.10;;
57309;SDS011;43153;50.984;18.204;2022-07-26T03:46:02;8.10;;;3.10;;
57309;SDS011;43153;50.984;18.204;2022-07-26T03:48:47;8.30;;;3.10;;
57309;SDS011;43153;50.984;18.204;2022-07-26T03:51:31;7.90;;;2.60;;
57309;SDS011;43153;50.984;18.204;2022-07-26T03:54:16;10.30;;;3.80;;
57309;SDS011;43153;50.984;18.204;2022-07-26T03:57:01;10.80;;;4.80;;
57309;SDS011;43153;50.984;18.204;2022-07-26T03:59:45;10.80;;;3.70;;
57309;SDS011;43153;50.984;18.204;2022-07-26T04:02:29;8.10;;;3.20;;
57309;SDS011;43153;50.984;18.204;2022-07-26T04:05:13;8.00;;;3.30;;
57309;SDS011;43153;50.984;18.204;2022-07-26T04:07:57;12.50;;;3.90;;
57309;SDS011;43153;50.984;18.204;2022-07-26T04:10:48;9.50;;;3.20;;
57309;SDS011;43153;50.984;18.204;2022-07-26T04:13:36;10.30;;;3.50;;
57309;SDS011;43153;50.984;18.204;2022-07-26T04:16:21;6.80;;;3.10;;
57309;SDS011;43153;50.984;18.204;2022-07-26T04:19:05;12.00;;;3.60;;
57309;SDS011;43153;50.984;18.204;2022-07-26T04:21:50;8.70;;;3.50;;
57309;SDS011;43153;50.984;18.204;2022-07-26T04:24:34;9.50;;;3.50;;
57309;SDS011;43153;50.984;18.204;2022-07-26T04:27:18;7.90;;;3.20;;
57309;SDS011;43153;50.984;18.204;2022-07-26T04:30:03;8.30;;;3.20;;
57309;SDS011;43153;50.984;18.204;2022-07-26T04:32:47;11.30;;;3.50;;
57309;SDS011;43153;50.984;18.204;2022-07-26T04:35:32;8.80;;;3.60;;
57309;SDS011;43153;50.984;18.204;2022-07-26T04:38:16;8.40;;;3.30;;
57309;SDS011;43153;50.984;18.204;2022-07-26T04:41:03;7.50;;;3.30;;
57309;SDS011;43153;50.984;18.204;2022-07-26T04:43:49;10.90;;;3.40;;
57309;SDS011;43153;50.984;18.204;2022-07-26T04:46:34;9.40;;;3.30;;
57309;SDS011;43153;50.984;18.204;2022-07-26T04:49:18;9.00;;;3.60;;
57309;SDS011;43153;50.984;18.204;2022-07-26T04:52:02;14.80;;;3.30;;
57309;SDS011;43153;50.984;18.204;2022-07-26T04:54:50;14.60;;;3.50;;
57309;SDS011;43153;50.984;18.204;2022-07-26T04:57:36;19.00;;;5.30;;
57309;SDS011;43153;50.984;18.204;2022-07-26T05:00:21;15.20;;;5.40;;
57309;SDS011;43153;50.984;18.204;2022-07-26T05:03:07;12.90;;;5.10;;
57309;SDS011;43153;50.984;18.204;2022-07-26T05:05:51;13.80;;;5.30;;
57309;SDS011;43153;50.984;18.204;2022-07-26T05:08:35;15.30;;;5.30;;
57309;SDS011;43153;50.984;18.204;2022-07-26T05:11:20;11.60;;;4.20;;
57309;SDS011;43153;50.984;18.204;2022-07-26T05:14:04;10.90;;;4.50;;
57309;SDS011;43153;50.984;18.204;2022-07-26T05:16:51;11.10;;;4.60;;
57309;SDS011;43153;50.984;18.204;2022-07-26T05:19:35;13.90;;;4.60;;
57309;SDS011;43153;50.984;18.204;2022-07-26T05:22:19;12.20;;;4.90;;
57309;SDS011;43153;50.984;18.204;2022-07-26T05:25:04;13.30;;;5.10;;
57309;SDS011;43153;50.984;18.204;2022-07-26T05:27:49;11.90;;;4.80;;
57309;SDS011;43153;50.984;18.204;2022-07-26T05:30:33;13.20;;;4.50;;
57309;SDS011;43153;50.984;18.204;2022-07-26T05:33:17;11.90;;;5.10;;
57309;SDS011;43153;50.984;18.204;2022-07-26T05:36:01;11.50;;;5.60;;
57309;SDS011;43153;50.984;18.204;2022-07-26T05:38:46;11.30;;;5.60;;
57309;SDS011;43153;50.984;18.204;2022-07-26T05:41:30;16.10;;;6.20;;
57309;SDS011;43153;50.984;18.204;2022-07-26T05:44:14;13.20;;;5.40;;
57309;SDS011;43153;50.984;18.204;2022-07-26T05:46:58;18.00;;;5.60;;
57309;SDS011;43153;50.984;18.204;2022-07-26T05:49:43;13.30;;;6.80;;
57309;SDS011;43153;50.984;18.204;2022-07-26T05:52:27;11.50;;;5.60;;
57309;SDS011;43153;50.984;18.204;2022-07-26T05:55:12;19.20;;;5.90;;
57309;SDS011;43153;50.984;18.204;2022-07-26T05:57:56;16.90;;;6.50;;
57309;SDS011;43153;50.984;18.204;2022-07-26T06:00:40;11.40;;;5.60;;
57309;SDS011;43153;50.984;18.204;2022-07-26T06:03:24;12.40;;;6.30;;
57309;SDS011;43153;50.984;18.204;2022-07-26T06:06:09;17.30;;;7.10;;
57309;SDS011;43153;50.984;18.204;2022-07-26T06:08:54;14.60;;;6.30;;
57309;SDS011;43153;50.984;18.204;2022-07-26T06:11:38;12.10;;;6.80;;
57309;SDS011;43153;50.984;18.204;2022-07-26T06:14:22;15.20;;;5.70;;
57309;SDS011;43153;50.984;18.204;2022-07-26T06:17:07;11.40;;;6.10;;
57309;SDS011;43153;50.984;18.204;2022-07-26T06:19:51;18.20;;;6.80;;
57309;SDS011;43153;50.984;18.204;2022-07-26T06:22:35;17.70;;;6.80;;
57309;SDS011;43153;50.984;18.204;2022-07-26T06:25:19;11.50;;;6.60;;
57309;SDS011;43153;50.984;18.204;2022-07-26T06:28:04;13.90;;;7.30;;
57309;SDS011;43153;50.984;18.204;2022-07-26T06:30:49;13.90;;;6.60;;
57309;SDS011;43153;50.984;18.204;2022-07-26T06:33:36;14.90;;;7.20;;
57309;SDS011;43153;50.984;18.204;2022-07-26T06:36:20;12.70;;;7.20;;
57309;SDS011;43153;50.984;18.204;2022-07-26T06:39:04;14.00;;;7.00;;
57309;SDS011;43153;50.984;18.204;2022-07-26T06:41:49;13.70;;;7.60;;
57309;SDS011;43153;50.984;18.204;2022-07-26T06:44:33;14.50;;;8.10;;
57309;SDS011;43153;50.984;18.204;2022-07-26T06:47:17;15.10;;;8.50;;
57309;SDS011;43153;50.984;18.204;2022-07-26T06:50:01;15.40;;;7.20;;
57309;SDS011;43153;50.984;18.204;2022-07-26T06:52:46;19.20;;;9.20;;
57309;SDS011;43153;50.984;18.204;2022-07-26T06:55:30;16.90;;;8.40;;
57309;SDS011;43153;50.984;18.204;2022-07-26T06:58:14;14.30;;;8.60;;
57309;SDS011;43153;50.984;18.204;2022-07-26T07:00:58;15.90;;;8.10;;
57309;SDS011;43153;50.984;18.204;2022-07-26T07:03:43;14.50;;;8.10;;
57309;SDS011;43153;50.984;18.204;2022-07-26T07:06:28;14.50;;;7.70;;
57309;SDS011;43153;50.984;18.204;2022-07-26T07:09:12;15.40;;;8.90;;
57309;SDS011;43153;50.984;18.204;2022-07-26T07:11:57;14.30;;;8.30;;
57309;SDS011;43153;50.984;18.204;2022-07-26T07:14:41;14.80;;;8.50;;
57309;SDS011;43153;50.984;18.204;2022-07-26T07:17:26;16.20;;;10.00;;
57309;SDS011;43153;50.984;18.204;2022-07-26T07:20:10;16.00;;;10.20;;
57309;SDS011;43153;50.984;18.204;2022-07-26T07:22:54;16.60;;;9.50;;
57309;SDS011;43153;50.984;18.204;2022-07-26T07:25:39;16.40;;;9.20;;
57309;SDS011;43153;50.984;18.204;2022-07-26T07:28:24;15.50;;;9.30;;
57309;SDS011;43153;50.984;18.204;2022-07-26T07:31:09;15.70;;;8.80;;
57309;SDS011;43153;50.984;18.204;2022-07-26T07:33:53;14.70;;;8.10;;
57309;SDS011;43153;50.984;18.204;2022-07-26T07:36:37;16.70;;;7.80;;
57309;SDS011;43153;50.984;18.204;2022-07-26T07:39:21;19.20;;;8.60;;
57309;SDS011;43153;50.984;18.204;2022-07-26T07:42:06;12.40;;;7.40;;
57309;SDS011;43153;50.984;18.204;2022-07-26T07:44:50;16.40;;;8.60;;
57309;SDS011;43153;50.984;18.204;2022-07-26T07:47:35;14.10;;;7.80;;
57309;SDS011;43153;50.984;18.204;2022-07-26T07:50:19;15.10;;;7.60;;
57309;SDS011;43153;50.984;18.204;2022-07-26T07:53:04;13.40;;;7.10;;
57309;SDS011;43153;50.984;18.204;2022-07-26T07:55:48;13.30;;;7.50;;
57309;SDS011;43153;50.984;18.204;2022-07-26T07:58:32;15.60;;;8.80;;
57309;SDS011;43153;50.984;18.204;2022-07-26T08:01:17;16.20;;;8.70;;
57309;SDS011;43153;50.984;18.204;2022-07-26T08:04:01;14.80;;;9.60;;
57309;SDS011;43153;50.984;18.204;2022-07-26T08:06:45;13.90;;;8.50;;
57309;SDS011;43153;50.984;18.204;2022-07-26T08:09:31;16.50;;;10.00;;
57309;SDS011;43153;50.984;18.204;2022-07-26T08:12:15;18.90;;;10.20;;
57309;SDS011;43153;50.984;18.204;2022-07-26T08:15:00;19.70;;;10.20;;
57309;SDS011;43153;50.984;18.204;2022-07-26T08:17:46;20.30;;;9.10;;
57309;SDS011;43153;50.984;18.204;2022-07-26T08:20:31;14.10;;;8.70;;
57309;SDS011;43153;50.984;18.204;2022-07-26T08:23:15;16.30;;;9.40;;
57309;SDS011;43153;50.984;18.204;2022-07-26T08:25:59;17.70;;;8.80;;
57309;SDS011;43153;50.984;18.204;2022-07-26T08:28:44;22.70;;;9.70;;
57309;SDS011;43153;50.984;18.204;2022-07-26T08:31:28;19.80;;;10.00;;
57309;SDS011;43153;50.984;18.204;2022-07-26T08:34:12;14.30;;;8.60;;
57309;SDS011;43153;50.984;18.204;2022-07-26T08:36:57;13.10;;;8.10;;
57309;SDS011;43153;50.984;18.204;2022-07-26T08:39:42;16.50;;;9.10;;
57309;SDS011;43153;50.984;18.204;2022-07-26T08:42:26;13.00;;;8.20;;
57309;SDS011;43153;50.984;18.204;2022-07-26T08:45:11;14.70;;;8.00;;
57309;SDS011;43153;50.984;18.204;2022-07-26T08:47:56;12.60;;;6.40;;
57309;SDS011;43153;50.984;18.204;2022-07-26T08:50:41;15.90;;;6.30;;
57309;SDS011;43153;50.984;18.204;2022-07-26T08:53:26;12.00;;;6.60;;
57309;SDS011;43153;50.984;18.204;2022-07-26T08:56:12;12.10;;;6.00;;
57309;SDS011;43153;50.984;18.204;2022-07-26T08:58:57;11.50;;;5.70;;
57309;SDS011;43153;50.984;18.204;2022-07-26T09:01:51;10.30;;;5.90;;
57309;SDS011;43153;50.984;18.204;2022-07-26T09:04:36;8.80;;;4.90;;
57309;SDS011;43153;50.984;18.204;2022-07-26T09:07:21;11.50;;;4.70;;
57309;SDS011;43153;50.984;18.204;2022-07-26T09:10:07;8.40;;;3.90;;
57309;SDS011;43153;50.984;18.204;2022-07-26T09:12:55;10.90;;;4.70;;
57309;SDS011;43153;50.984;18.204;2022-07-26T09:15:40;8.70;;;4.30;;
57309;SDS011;43153;50.984;18.204;2022-07-26T09:18:25;11.20;;;4.10;;
57309;SDS011;43153;50.984;18.204;2022-07-26T09:21:26;8.10;;;3.60;;
57309;SDS011;43153;50.984;18.204;2022-07-26T09:24:11;10.30;;;4.50;;
57309;SDS011;43153;50.984;18.204;2022-07-26T09:26:56;8.50;;;4.40;;
57309;SDS011;43153;50.984;18.204;2022-07-26T09:29:51;9.10;;;3.70;;
57309;SDS011;43153;50.984;18.204;2022-07-26T09:32:35;8.60;;;4.00;;
57309;SDS011;43153;50.984;18.204;2022-07-26T09:35:20;10.20;;;4.00;;
57309;SDS011;43153;50.984;18.204;2022-07-26T09:38:14;9.30;;;3.30;;
57309;SDS011;43153;50.984;18.204;2022-07-26T09:40:58;7.40;;;3.80;;
57309;SDS011;43153;50.984;18.204;2022-07-26T09:43:42;10.20;;;4.50;;
57309;SDS011;43153;50.984;18.204;2022-07-26T09:46:27;9.10;;;4.20;;
57309;SDS011;43153;50.984;18.204;2022-07-26T09:49:16;7.90;;;3.70;;
57309;SDS011;43153;50.984;18.204;2022-07-26T09:52:01;8.80;;;4.20;;
57309;SDS011;43153;50.984;18.204;2022-07-26T09:54:46;10.70;;;4.00;;
57309;SDS011;43153;50.984;18.204;2022-07-26T09:57:35;8.20;;;3.60;;
57309;SDS011;43153;50.984;18.204;2022-07-26T10:00:19;10.90;;;4.00;;
57309;SDS011;43153;50.984;18.204;2022-07-26T10:03:03;12.20;;;3.70;;
57309;SDS011;43153;50.984;18.204;2022-07-26T10:05:48;7.70;;;3.10;;
57309;SDS011;43153;50.984;18.204;2022-07-26T10:08:32;7.50;;;3.20;;
57309;SDS011;43153;50.984;18.204;2022-07-26T10:11:16;7.90;;;2.90;;
57309;SDS011;43153;50.984;18.204;2022-07-26T10:20:10;5.60;;;2.50;;
57309;SDS011;43153;50.984;18.204;2022-07-26T10:22:54;8.20;;;2.90;;
57309;SDS011;43153;50.984;18.204;2022-07-26T10:25:46;6.30;;;2.50;;
57309;SDS011;43153;50.984;18.204;2022-07-26T10:28:32;5.90;;;2.50;;
57309;SDS011;43153;50.984;18.204;2022-07-26T10:34:04;9.30;;;2.70;;
57309;SDS011;43153;50.984;18.204;2022-07-26T10:36:48;11.00;;;2.90;;
57309;SDS011;43153;50.984;18.204;2022-07-26T10:42:24;6.80;;;2.70;;
57309;SDS011;43153;50.984;18.204;2022-07-26T10:45:25;14.20;;;2.20;;
57309;SDS011;43153;50.984;18.204;2022-07-26T10:48:19;4.70;;;2.20;;
57309;SDS011;43153;50.984;18.204;2022-07-26T10:51:03;5.80;;;2.70;;
57309;SDS011;43153;50.984;18.204;2022-07-26T10:54:11;8.10;;;2.40;;
57309;SDS011;43153;50.984;18.204;2022-07-26T10:56:56;10.50;;;2.70;;
57309;SDS011;43153;50.984;18.204;2022-07-26T10:59:40;8.10;;;2.60;;
57309;SDS011;43153;50.984;18.204;2022-07-26T11:02:28;16.40;;;2.80;;
57309;SDS011;43153;50.984;18.204;2022-07-26T11:05:16;11.60;;;2.10;;
57309;SDS011;43153;50.984;18.204;2022-07-26T11:08:05;13.70;;;2.40;;
57309;SDS011;43153;50.984;18.204;2022-07-26T11:10:53;10.30;;;3.20;;
57309;SDS011;43153;50.984;18.204;2022-07-26T11:13:37;7.60;;;2.00;;
57309;SDS011;43153;50.984;18.204;2022-07-26T11:16:23;11.30;;;2.60;;
57309;SDS011;43153;50.984;18.204;2022-07-26T11:19:18;10.20;;;2.40;;
57309;SDS011;43153;50.984;18.204;2022-07-26T11:22:02;7.90;;;2.30;;
57309;SDS011;43153;50.984;18.204;2022-07-26T11:24:47;6.60;;;2.70;;
57309;SDS011;43153;50.984;18.204;2022-07-26T11:27:31;7.50;;;2.30;;
57309;SDS011;43153;50.984;18.204;2022-07-26T11:30:16;8.20;;;2.30;;
57309;SDS011;43153;50.984;18.204;2022-07-26T11:33:00;9.20;;;2.60;;
57309;SDS011;43153;50.984;18.204;2022-07-26T11:35:51;7.40;;;2.10;;
57309;SDS011;43153;50.984;18.204;2022-07-26T11:38:42;5.10;;;2.10;;
57309;SDS011;43153;50.984;18.204;2022-07-26T11:41:27;7.50;;;2.20;;
57309;SDS011;43153;50.984;18.204;2022-07-26T11:44:16;9.00;;;2.00;;
57309;SDS011;43153;50.984;18.204;2022-07-26T11:47:16;6.10;;;2.30;;
57309;SDS011;43153;50.984;18.204;2022-07-26T11:50:06;8.60;;;2.10;;
57309;SDS011;43153;50.984;18.204;2022-07-26T11:52:51;5.90;;;1.80;;
57309;SDS011;43153;50.984;18.204;2022-07-26T11:55:36;6.70;;;2.00;;
57309;SDS011;43153;50.984;18.204;2022-07-26T11:58:20;8.40;;;2.60;;
57309;SDS011;43153;50.984;18.204;2022-07-26T12:01:05;7.00;;;2.10;;
57309;SDS011;43153;50.984;18.204;2022-07-26T12:03:53;7.70;;;2.50;;
57309;SDS011;43153;50.984;18.204;2022-07-26T12:06:38;10.10;;;3.10;;
57309;SDS011;43153;50.984;18.204;2022-07-26T12:09:35;11.30;;;4.30;;
57309;SDS011;43153;50.984;18.204;2022-07-26T12:12:21;17.30;;;4.10;;
57309;SDS011;43153;50.984;18.204;2022-07-26T12:15:06;6.90;;;1.30;;
57309;SDS011;43153;50.984;18.204;2022-07-26T12:17:57;17.80;;;5.90;;
57309;SDS011;43153;50.984;18.204;2022-07-26T12:20:54;6.50;;;1.60;;
57309;SDS011;43153;50.984;18.204;2022-07-26T12:23:46;6.70;;;1.70;;
57309;SDS011;43153;50.984;18.204;2022-07-26T12:26:36;6.60;;;1.80;;
57309;SDS011;43153;50.984;18.204;2022-07-26T12:29:26;6.40;;;1.70;;
57309;SDS011;43153;50.984;18.204;2022-07-26T12:40:39;9.90;;;4.10;;
57309;SDS011;43153;50.984;18.204;2022-07-26T12:43:24;6.10;;;1.60;;
57309;SDS011;43153;50.984;18.204;2022-07-26T12:46:08;9.20;;;1.80;;
57309;SDS011;43153;50.984;18.204;2022-07-26T12:48:53;8.30;;;2.20;;
57309;SDS011;43153;50.984;18.204;2022-07-26T12:51:37;9.10;;;1.90;;
57309;SDS011;43153;50.984;18.204;2022-07-26T12:54:21;6.90;;;2.10;;
57309;SDS011;43153;50.984;18.204;2022-07-26T12:57:05;8.00;;;1.90;;
57309;SDS011;43153;50.984;18.204;2022-07-26T12:59:51;6.30;;;1.90;;
57309;SDS011;43153;50.984;18.204;2022-07-26T13:02:41;7.60;;;3.10;;
57309;SDS011;43153;50.984;18.204;2022-07-26T13:05:26;11.10;;;2.70;;
57309;SDS011;43153;50.984;18.204;2022-07-26T13:08:10;4.90;;;1.60;;
57309;SDS011;43153;50.984;18.204;2022-07-26T13:10:54;5.60;;;1.90;;
57309;SDS011;43153;50.984;18.204;2022-07-26T13:13:38;6.60;;;1.90;;
57309;SDS011;43153;50.984;18.204;2022-07-26T13:16:22;5.30;;;1.80;;
57309;SDS011;43153;50.984;18.204;2022-07-26T13:19:07;9.00;;;2.00;;
57309;SDS011;43153;50.984;18.204;2022-07-26T13:21:51;5.90;;;1.90;;
57309;SDS011;43153;50.984;18.204;2022-07-26T13:24:36;6.90;;;1.60;;
57309;SDS011;43153;50.984;18.204;2022-07-26T13:27:21;4.90;;;1.60;;
57309;SDS011;43153;50.984;18.204;2022-07-26T13:30:05;6.30;;;1.70;;
57309;SDS011;43153;50.984;18.204;2022-07-26T13:32:50;6.80;;;1.70;;
57309;SDS011;43153;50.984;18.204;2022-07-26T13:35:35;6.80;;;1.60;;
57309;SDS011;43153;50.984;18.204;2022-07-26T13:38:21;6.70;;;1.90;;
57309;SDS011;43153;50.984;18.204;2022-07-26T13:41:05;9.40;;;1.80;;
57309;SDS011;43153;50.984;18.204;2022-07-26T13:43:49;12.60;;;2.00;;
57309;SDS011;43153;50.984;18.204;2022-07-26T13:46:35;5.90;;;1.60;;
57309;SDS011;43153;50.984;18.204;2022-07-26T13:49:19;9.60;;;1.60;;
57309;SDS011;43153;50.984;18.204;2022-07-26T13:52:04;7.40;;;2.00;;
57309;SDS011;43153;50.984;18.204;2022-07-26T13:54:48;7.50;;;1.70;;
57309;SDS011;43153;50.984;18.204;2022-07-26T13:57:33;8.50;;;1.80;;
57309;SDS011;43153;50.984;18.204;2022-07-26T14:00:17;7.80;;;2.30;;
57309;SDS011;43153;50.984;18.204;2022-07-26T14:03:02;7.40;;;1.50;;
57309;SDS011;43153;50.984;18.204;2022-07-26T14:05:46;5.30;;;1.40;;
57309;SDS011;43153;50.984;18.204;2022-07-26T14:08:31;4.40;;;1.40;;
57309;SDS011;43153;50.984;18.204;2022-07-26T14:11:15;6.90;;;2.00;;
57309;SDS011;43153;50.984;18.204;2022-07-26T14:13:59;8.50;;;1.80;;
57309;SDS011;43153;50.984;18.204;2022-07-26T14:16:43;7.30;;;1.80;;
57309;SDS011;43153;50.984;18.204;2022-07-26T14:19:28;8.40;;;1.80;;
57309;SDS011;43153;50.984;18.204;2022-07-26T14:22:12;7.90;;;1.50;;
57309;SDS011;43153;50.984;18.204;2022-07-26T14:24:56;6.80;;;1.40;;
57309;SDS011;43153;50.984;18.204;2022-07-26T14:27:40;7.70;;;1.80;;
57309;SDS011;43153;50.984;18.204;2022-07-26T14:30:25;5.90;;;1.70;;
57309;SDS011;43153;50.984;18.204;2022-07-26T14:33:10;9.80;;;1.60;;
57309;SDS011;43153;50.984;18.204;2022-07-26T14:35:55;4.70;;;1.40;;
57309;SDS011;43153;50.984;18.204;2022-07-26T14:38:40;5.60;;;1.80;;
57309;SDS011;43153;50.984;18.204;2022-07-26T14:41:25;6.00;;;1.70;;
57309;SDS011;43153;50.984;18.204;2022-07-26T14:44:09;8.10;;;1.60;;
57309;SDS011;43153;50.984;18.204;2022-07-26T14:46:54;10.30;;;1.80;;
57309;SDS011;43153;50.984;18.204;2022-07-26T14:49:38;7.40;;;2.00;;
57309;SDS011;43153;50.984;18.204;2022-07-26T14:52:23;6.00;;;1.60;;
57309;SDS011;43153;50.984;18.204;2022-07-26T14:55:07;4.50;;;1.50;;
57309;SDS011;43153;50.984;18.204;2022-07-26T14:57:52;6.40;;;1.20;;
57309;SDS011;43153;50.984;18.204;2022-07-26T15:00:36;5.50;;;1.60;;
57309;SDS011;43153;50.984;18.204;2022-07-26T15:03:21;5.30;;;1.30;;
57309;SDS011;43153;50.984;18.204;2022-07-26T15:06:05;7.40;;;1.40;;
57309;SDS011;43153;50.984;18.204;2022-07-26T15:08:50;6.30;;;1.70;;
57309;SDS011;43153;50.984;18.204;2022-07-26T15:11:34;6.60;;;1.50;;
57309;SDS011;43153;50.984;18.204;2022-07-26T15:14:18;4.20;;;1.30;;
57309;SDS011;43153;50.984;18.204;2022-07-26T15:17:03;6.30;;;1.90;;
57309;SDS011;43153;50.984;18.204;2022-07-26T15:19:47;7.30;;;1.60;;
57309;SDS011;43153;50.984;18.204;2022-07-26T15:22:32;6.70;;;1.80;;
57309;SDS011;43153;50.984;18.204;2022-07-26T15:25:16;8.70;;;1.40;;
57309;SDS011;43153;50.984;18.204;2022-07-26T15:28:00;3.50;;;1.30;;
57309;SDS011;43153;50.984;18.204;2022-07-26T15:30:45;6.30;;;1.60;;
57309;SDS011;43153;50.984;18.204;2022-07-26T15:33:30;5.50;;;1.20;;
57309;SDS011;43153;50.984;18.204;2022-07-26T15:36:14;5.50;;;1.40;;
57309;SDS011;43153;50.984;18.204;2022-07-26T15:38:59;10.10;;;1.70;;
57309;SDS011;43153;50.984;18.204;2022-07-26T15:41:44;8.20;;;2.00;;
57309;SDS011;43153;50.984;18.204;2022-07-26T15:44:28;8.00;;;1.60;;
57309;SDS011;43153;50.984;18.204;2022-07-26T15:47:13;5.00;;;1.60;;
57309;SDS011;43153;50.984;18.204;2022-07-26T15:49:57;5.90;;;1.50;;
57309;SDS011;43153;50.984;18.204;2022-07-26T15:52:43;5.30;;;1.70;;
57309;SDS011;43153;50.984;18.204;2022-07-26T15:55:27;7.90;;;1.40;;
57309;SDS011;43153;50.984;18.204;2022-07-26T15:58:12;4.50;;;1.40;;
57309;SDS011;43153;50.984;18.204;2022-07-26T16:00:56;5.20;;;1.40;;
57309;SDS011;43153;50.984;18.204;2022-07-26T16:03:41;5.10;;;1.80;;
57309;SDS011;43153;50.984;18.204;2022-07-26T16:06:25;8.50;;;2.00;;
57309;SDS011;43153;50.984;18.204;2022-07-26T16:09:11;8.30;;;1.50;;
57309;SDS011;43153;50.984;18.204;2022-07-26T16:11:56;5.10;;;1.20;;
57309;SDS011;43153;50.984;18.204;2022-07-26T16:14:40;3.90;;;1.20;;
57309;SDS011;43153;50.984;18.204;2022-07-26T16:17:25;4.80;;;1.30;;
57309;SDS011;43153;50.984;18.204;2022-07-26T16:20:09;6.50;;;1.50;;
57309;SDS011;43153;50.984;18.204;2022-07-26T16:22:53;7.00;;;1.30;;
57309;SDS011;43153;50.984;18.204;2022-07-26T16:25:38;4.20;;;1.30;;
57309;SDS011;43153;50.984;18.204;2022-07-26T16:28:22;8.60;;;1.60;;
57309;SDS011;43153;50.984;18.204;2022-07-26T16:31:06;4.60;;;1.00;;
57309;SDS011;43153;50.984;18.204;2022-07-26T16:33:50;4.40;;;1.20;;